Marfa's Hourly Summary for Monday, August 24, 2026
Hour Temp
(f)
RH
(%)
Solar Rad.
(MJ/m2)
Rainfall
(in)
Wind
(mph)
Battery
(volts)
8/24/2026 12:00 AM 83 24 0 0 6.73 0
8/24/2026 1:00 AM 82 27 0 0 6.11 0
8/24/2026 2:00 AM 80 29 0 0 2.43 0
8/24/2026 3:00 AM 79 31 0 0 3.64 0
8/24/2026 4:00 AM 71 38 0 0 3.9 0
8/24/2026 5:00 AM 68 39 0 0 3.45 0
8/24/2026 6:00 AM 66 41 0 0 2.99 0
8/24/2026 7:00 AM 65 43 0 0 3.92 0
8/24/2026 8:00 AM 67 44 0.07 0 4.77 0
8/24/2026 9:00 AM 74 37 0.26 0 4.37 0
8/24/2026 10:00 AM 83 29 0.47 0 1.31 0
8/24/2026 11:00 AM 87 24 0.66 0 4.07 0
8/24/2026 12:00 PM 90 22 0.81 0 2.91 0
8/24/2026 1:00 PM 93 18 0.9 0 6.45 0
8/24/2026 2:00 PM 94 16 0.93 0 6.76 0
8/24/2026 3:00 PM 97 11 0.9 0 3.28 0
8/24/2026 4:00 PM 99 16 0.81 0 6.25 0
8/24/2026 5:00 PM 99 10 0.73 0 5.49 0
8/24/2026 6:00 PM 97 13 0.47 0 11.2 0
8/24/2026 7:00 PM 96 13 0.26 0 9.77 0
8/24/2026 8:00 PM 92 15 0.07 0 8.68 0
8/24/2026 9:00 PM 89 17 0 0 6.77 0
8/24/2026 10:00 PM 87 16 0 0 7.06 0
8/24/2026 11:00 PM 85 17 0 0 6.81 0
Data Summary 84 24 7.34 0.00 5.38 0.00